Time;durP1;ratioP1;P1;durP2;ratioP2;P2;SDS_P1;SDS_P2;PMS_P1;PMS_P2;Temp;Humidity;BMP_temperature;BMP_pressure;BME280_temperature;BME280_humidity;BME280_pressure;Samples;Min_cycle;Max_cycle;Signal;HPM_P1;HPM_P2
2022/11/21 03:22:52;;;;;;;0.40;0.20;;;;;;;6.17;72.17;95758.72;6090992;23;20025;-80
2022/11/21 05:44:52;;;;;;;1.05;0.30;;;;;;;6.38;74.58;95706.25;6069772;23;20026;-82
2022/11/21 05:47:20;;;;;;;2.15;0.75;;;;;;;6.39;73.99;95704.44;6071050;23;20022;-81
2022/11/21 05:49:49;;;;;;;0.40;0.40;;;;;;;6.38;73.71;95708.84;6070701;23;20026;-80
2022/11/21 05:52:16;;;;;;;4.35;0.55;;;;;;;6.33;73.19;95703.34;6068636;23;20374;-81
2022/11/21 05:54:44;;;;;;;1.75;0.75;;;;;;;6.30;73.63;95714.09;6069489;23;20029;-79
2022/11/21 05:57:12;;;;;;;1.63;0.80;;;;;;;6.25;74.19;95708.59;6068027;23;20501;-81
2022/11/21 05:59:40;;;;;;;3.42;0.98;;;;;;;6.24;74.34;95706.22;6068055;23;20027;-81
2022/11/21 06:04:54;;;;;;;2.85;0.65;;;;;;;6.21;74.44;95716.91;6070614;23;20023;-82
2022/11/21 06:07:21;;;;;;;1.52;0.88;;;;;;;6.18;74.58;95716.28;6070946;23;20034;-81
2022/11/21 06:09:49;;;;;;;1.10;0.70;;;;;;;6.18;74.25;95716.28;6070425;23;20027;-81
2022/11/21 06:12:17;;;;;;;2.03;0.80;;;;;;;6.17;74.89;95729.41;6070231;23;20027;-80
2022/11/21 06:14:51;;;;;;;1.27;0.98;;;;;;;6.17;74.60;95730.22;6069634;23;20355;-79
2022/11/21 06:17:19;;;;;;;1.50;1.10;;;;;;;6.18;74.24;95725.84;6069897;23;20019;-80
2022/11/21 06:19:46;;;;;;;4.25;2.90;;;;;;;6.17;74.00;95738.00;6069392;23;20030;-80
2022/11/21 06:22:15;;;;;;;6.97;4.40;;;;;;;6.17;74.43;95727.63;6069945;23;20025;-80
2022/11/21 06:24:43;;;;;;;3.05;2.13;;;;;;;6.17;73.90;95730.22;6069325;23;20041;-81
2022/11/21 06:27:13;;;;;;;4.63;2.42;;;;;;;6.16;73.52;95728.59;6069155;23;20078;-81
2022/11/21 06:29:41;;;;;;;5.70;4.22;;;;;;;6.16;73.45;95723.41;6069640;23;20023;-80
2022/11/21 06:32:08;;;;;;;4.63;2.60;;;;;;;6.17;74.06;95725.03;6068793;23;20046;-81
2022/11/21 06:34:36;;;;;;;1.20;1.10;;;;;;;6.19;74.05;95733.44;6069183;23;20084;-81
2022/11/21 06:37:04;;;;;;;1.25;0.80;;;;;;;6.22;74.42;95734.88;6068692;23;20019;-80
2022/11/21 06:39:33;;;;;;;3.90;1.30;;;;;;;6.25;74.96;95744.06;6069541;23;20045;-81
2022/11/21 06:42:03;;;;;;;1.90;1.10;;;;;;;6.24;74.73;95735.50;6085182;23;20023;-82
2022/11/21 06:44:36;;;;;;;0.70;0.70;;;;;;;6.24;74.90;95739.88;6087330;23;20014;-82
2022/11/21 06:52:22;;;;;;;0.50;0.50;;;;;;;6.24;74.94;95748.44;6085806;23;20028;-80
2022/11/21 06:55:17;;;;;;;2.13;0.73;;;;;;;6.21;74.78;95742.81;6108855;23;20050;-80
2022/11/21 06:57:48;;;;;;;0.77;0.60;;;;;;;6.21;74.56;95745.41;6115455;23;20026;-80
2022/11/21 07:00:17;;;;;;;1.75;1.48;;;;;;;6.18;74.35;95746.56;6111435;23;20081;-80
2022/11/21 07:02:45;;;;;;;2.50;2.03;;;;;;;6.14;74.53;95743.53;6117318;23;20065;-80
2022/11/21 07:05:14;;;;;;;1.80;1.35;;;;;;;6.10;74.32;95755.22;6115803;23;20022;-80
2022/11/21 07:07:46;;;;;;;2.35;1.40;;;;;;;6.07;74.48;95749.56;6118226;23;20029;-80
2022/11/21 07:10:16;;;;;;;2.05;1.10;;;;;;;6.07;74.86;95757.34;6123296;23;20018;-80
2022/11/21 07:15:30;;;;;;;3.00;2.10;;;;;;;6.09;74.47;95747.59;6122304;23;20051;-82
2022/11/21 07:18:11;;;;;;;2.40;1.50;;;;;;;6.09;75.11;95750.19;6121885;23;20034;-82
2022/11/21 07:20:46;;;;;;;3.42;1.30;;;;;;;6.12;75.36;95753.25;6121316;23;20019;-82
2022/11/21 07:23:17;;;;;;;0.73;0.73;;;;;;;6.15;75.76;95759.88;6114084;23;20050;-82
2022/11/21 07:25:48;;;;;;;1.00;0.82;;;;;;;6.16;75.07;95762.25;6117524;23;20019;-83
2022/11/21 07:28:25;;;;;;;1.40;1.02;;;;;;;6.17;75.46;95755.31;6114483;23;20046;-83
2022/11/21 07:31:00;;;;;;;0.70;0.63;;;;;;;6.19;75.68;95761.94;6110909;23;20050;-83
2022/11/21 07:33:34;;;;;;;1.55;0.73;;;;;;;6.19;74.79;95759.34;6111578;23;20425;-83
2022/11/21 07:36:06;;;;;;;2.42;0.82;;;;;;;6.22;75.50;95762.56;6110700;23;20021;-82
2022/11/21 07:38:34;;;;;;;1.50;0.55;;;;;;;6.24;74.60;95763.19;6107300;23;20026;-83
2022/11/21 07:41:09;;;;;;;1.00;0.82;;;;;;;6.25;74.59;95767.38;6110766;23;20033;-82
2022/11/21 07:43:38;;;;;;;1.95;0.93;;;;;;;6.24;74.78;95761.41;6112210;23;20029;-82
2022/11/21 07:46:06;;;;;;;2.03;1.00;;;;;;;6.27;75.09;95762.81;6107630;23;20359;-82
2022/11/21 07:48:45;;;;;;;3.50;1.27;;;;;;;6.28;74.96;95759.28;6110733;23;20019;-82
2022/11/21 07:51:22;;;;;;;2.13;0.90;;;;;;;6.31;74.25;95751.16;6115359;23;20053;-82
2022/11/21 07:54:01;;;;;;;1.90;1.13;;;;;;;6.35;74.88;95747.22;6114699;23;20077;-82
2022/11/21 07:56:40;;;;;;;1.30;1.00;;;;;;;6.39;74.36;95748.47;6113843;23;20022;-83
2022/11/21 07:59:20;;;;;;;2.75;0.93;;;;;;;6.39;74.51;95749.28;6114234;23;20097;-82
2022/11/21 08:01:59;;;;;;;1.13;0.63;;;;;;;6.42;74.39;95744.72;6108688;23;20024;-82
2022/11/21 08:04:38;;;;;;;1.60;0.85;;;;;;;6.45;73.74;95757.31;6110478;23;20044;-83
2022/11/21 08:07:13;;;;;;;2.60;0.82;;;;;;;6.50;74.59;95750.63;6112352;23;20490;-82
2022/11/21 08:09:48;;;;;;;1.05;0.70;;;;;;;6.53;73.50;95749.47;6112622;23;20099;-83
2022/11/21 08:12:28;;;;;;;2.03;1.20;;;;;;;6.55;74.17;95763.06;6114629;23;20023;-83
2022/11/21 08:15:07;;;;;;;2.97;1.30;;;;;;;6.56;74.21;95760.31;6112674;23;20010;-83
2022/11/21 08:17:43;;;;;;;2.97;1.10;;;;;;;6.57;74.09;95756.72;6108260;23;20022;-82
2022/11/21 08:20:12;;;;;;;3.38;1.88;;;;;;;6.61;74.65;95759.75;6109096;23;20029;-82
2022/11/21 08:22:46;;;;;;;1.30;0.90;;;;;;;6.63;74.58;95754.41;6116204;23;20026;-82
2022/11/21 08:25:15;;;;;;;4.20;2.05;;;;;;;6.65;74.28;95752.44;6112028;23;20022;-82
2022/11/21 08:27:52;;;;;;;1.38;1.00;;;;;;;6.65;73.78;95742.06;6114737;23;20049;-83
2022/11/21 08:30:23;;;;;;;1.05;0.77;;;;;;;6.67;74.10;95755.66;6115387;23;20034;-83
2022/11/21 08:32:56;;;;;;;3.20;1.20;;;;;;;6.69;74.05;95749.31;6115518;23;20042;-82
2022/11/21 08:35:43;;;;;;;3.42;1.42;;;;;;;6.73;74.14;95767.91;6115857;23;20248;-83
2022/11/21 08:38:14;;;;;;;2.13;1.38;;;;;;;6.74;74.04;95759.16;6111293;23;20037;-82
2022/11/21 08:40:42;;;;;;;4.97;1.73;;;;;;;6.75;74.42;95771.13;6107813;23;20054;-80
2022/11/21 08:43:13;;;;;;;1.05;0.82;;;;;;;6.78;74.69;95771.56;6119791;23;20022;-81
2022/11/21 08:45:41;;;;;;;1.40;1.15;;;;;;;6.83;74.58;95770.25;6119604;23;20018;-80
2022/11/21 08:48:15;;;;;;;3.88;0.82;;;;;;;6.85;74.41;95782.03;6120268;23;20102;-81
2022/11/21 08:50:43;;;;;;;2.92;0.77;;;;;;;6.85;74.16;95769.06;6095353;23;20033;-80
2022/11/21 08:53:11;;;;;;;2.35;1.02;;;;;;;6.86;74.38;95767.28;6119494;23;20033;-80
2022/11/21 08:55:40;;;;;;;3.60;1.02;;;;;;;6.87;74.48;95761.94;6121374;23;21942;-80
2022/11/21 08:58:08;;;;;;;3.42;1.33;;;;;;;6.91;74.65;95770.97;6121283;23;20048;-80
2022/11/21 09:00:38;;;;;;;1.98;0.68;;;;;;;6.91;73.89;95767.53;6121163;23;20018;-80
2022/11/21 09:03:09;;;;;;;3.33;1.50;;;;;;;6.92;73.74;95772.56;6121851;23;20022;-80
2022/11/21 09:05:37;;;;;;;2.05;1.00;;;;;;;6.93;73.48;95761.22;6116581;23;20018;-80
2022/11/21 09:08:06;;;;;;;1.80;1.15;;;;;;;6.92;73.38;95764.78;6122128;23;20031;-82
2022/11/21 09:10:35;;;;;;;4.65;1.30;;;;;;;6.93;74.52;95766.41;6117783;23;20038;-83
2022/11/21 09:13:03;;;;;;;3.75;1.10;;;;;;;6.95;73.90;95755.84;6113092;23;20023;-82
2022/11/21 09:18:17;;;;;;;2.53;1.10;;;;;;;6.98;74.09;95753.69;6112129;23;20098;-82
2022/11/21 09:20:44;;;;;;;1.92;0.73;;;;;;;6.99;73.85;95755.28;6112764;23;20050;-82
2022/11/21 09:23:15;;;;;;;3.67;1.48;;;;;;;7.01;73.69;95752.53;6103754;23;20030;-80
2022/11/21 09:25:44;;;;;;;4.70;1.48;;;;;;;7.00;73.64;95750.94;6098336;23;20032;-80
2022/11/21 09:28:13;;;;;;;3.42;1.35;;;;;;;7.00;73.34;95743.94;6097554;23;20022;-80
2022/11/21 09:30:42;;;;;;;1.30;1.15;;;;;;;7.03;73.65;95749.75;6103603;23;20109;-80
2022/11/21 09:33:12;;;;;;;3.25;1.13;;;;;;;7.03;72.74;95760.94;6105567;23;20030;-80
2022/11/21 09:35:41;;;;;;;5.25;1.30;;;;;;;7.04;73.16;95761.72;6106775;23;20018;-80
2022/11/21 09:38:08;;;;;;;2.50;0.85;;;;;;;7.05;73.50;95758.16;6105603;23;20470;-79
2022/11/21 09:40:38;;;;;;;3.67;1.30;;;;;;;7.10;73.58;95755.81;6105054;23;20018;-80
2022/11/21 09:43:29;;;;;;;3.38;1.40;;;;;;;7.14;73.89;95762.25;6104269;23;20740;-79
2022/11/21 09:46:02;;;;;;;2.25;1.52;;;;;;;7.16;73.58;95755.09;6104916;23;20032;-82
2022/11/21 09:48:34;;;;;;;2.35;1.42;;;;;;;7.26;73.93;95750.44;6097854;23;20025;-78
2022/11/21 09:51:07;;;;;;;4.43;2.22;;;;;;;7.54;73.45;95747.16;6096302;23;20029;-77
2022/11/21 09:53:38;;;;;;;1.83;1.20;;;;;;;7.84;72.47;95747.84;6096066;23;20018;-77
2022/11/21 09:56:10;;;;;;;2.05;1.42;;;;;;;8.13;71.48;95752.09;6096691;23;20029;-77
2022/11/21 09:58:42;;;;;;;1.77;1.23;;;;;;;8.33;70.47;95748.88;6096583;23;20029;-78
2022/11/21 10:01:12;;;;;;;2.05;1.00;;;;;;;8.43;69.86;95746.78;6097162;23;20354;-78
2022/11/21 10:03:43;;;;;;;2.88;1.15;;;;;;;8.44;70.66;95740.63;6095823;23;20485;-77
2022/11/21 10:06:19;;;;;;;3.55;1.10;;;;;;;8.44;68.75;95732.81;6096197;23;20018;-78
2022/11/21 10:08:57;;;;;;;2.28;1.15;;;;;;;8.45;68.32;95739.59;6096209;23;20022;-77
2022/11/21 10:12:35;;;;;;;2.13;1.08;;;;;;;8.41;68.06;95733.16;6096631;23;20358;-78
2022/11/21 10:14:44;;;;;;;7.35;1.30;;;;;;;8.37;66.96;95731.91;6096425;23;20023;-77
2022/11/21 10:17:20;;;;;;;2.55;0.85;;;;;;;8.30;66.98;95731.06;6093720;23;20022;-78
2022/11/21 10:20:09;;;;;;;3.25;0.90;;;;;;;8.24;67.55;95723.03;6095137;23;20032;-77
2022/11/21 10:23:03;;;;;;;1.65;0.90;;;;;;;8.22;66.39;95724.19;6095965;23;20018;-77
2022/11/21 10:25:36;;;;;;;4.38;1.00;;;;;;;8.16;65.61;95723.19;6096866;23;20022;-78
2022/11/21 10:28:06;;;;;;;;;;;;;;;8.13;65.88;95722.72;6096491;23;20022;-78
2022/11/21 10:30:35;;;;;;;2.17;1.27;;;;;;;8.08;66.90;95712.91;6096522;23;19921;-76
2022/11/21 10:33:05;;;;;;;3.03;1.10;;;;;;;8.03;66.63;95700.50;6095665;23;20026;-77
2022/11/21 10:35:39;;;;;;;7.78;1.42;;;;;;;8.01;65.35;95701.69;6096164;23;20526;-77
2022/11/21 10:38:20;;;;;;;3.13;1.05;;;;;;;7.99;64.80;95695.84;6095184;23;20733;-77
2022/11/21 10:40:52;;;;;;;3.38;0.90;;;;;;;7.97;65.95;95684.84;6096453;23;20022;-79
2022/11/21 10:46:15;;;;;;;3.47;1.27;;;;;;;7.99;65.85;95688.88;6096695;23;20022;-78
2022/11/21 10:48:52;;;;;;;2.50;1.60;;;;;;;8.11;66.10;95685.75;6102682;23;20027;-80
2022/11/21 10:51:35;;;;;;;3.03;0.80;;;;;;;8.20;64.67;95680.25;6103777;23;20030;-80
2022/11/21 10:56:53;;;;;;;6.75;1.95;;;;;;;8.25;66.18;95664.88;6095982;23;20026;-79
2022/11/21 10:59:24;;;;;;;2.15;1.17;;;;;;;8.25;64.99;95656.28;6095916;23;20489;-80
2022/11/21 11:01:59;;;;;;;5.32;1.50;;;;;;;8.27;65.94;95648.31;6096736;23;20030;-80
2022/11/21 11:04:28;;;;;;;3.50;1.20;;;;;;;8.38;66.26;95655.56;6095810;23;20097;-79
2022/11/21 11:07:21;;;;;;;4.00;0.95;;;;;;;8.69;65.17;95654.38;6095674;23;20046;-79
2022/11/21 11:09:51;;;;;;;3.00;0.90;;;;;;;9.01;63.81;95642.50;6098133;23;20467;-80
2022/11/21 11:15:32;;;;;;;4.07;1.15;;;;;;;9.83;62.09;95640.63;6099064;23;20038;-81
2022/11/21 11:18:03;;;;;;;3.00;1.25;;;;;;;10.17;60.85;95642.22;6106499;23;20018;-80
2022/11/21 11:20:37;;;;;;;1.42;0.80;;;;;;;10.42;60.35;95628.56;6098133;23;20026;-80
2022/11/21 11:23:24;;;;;;;2.38;1.00;;;;;;;10.57;60.94;95629.13;6102149;23;20022;-81
2022/11/21 11:25:57;;;;;;;2.30;0.60;;;;;;;10.67;60.27;95616.47;6099113;23;20057;-81
2022/11/21 11:28:33;;;;;;;4.03;1.00;;;;;;;10.75;59.85;95615.41;6099436;23;20106;-81
2022/11/21 11:31:01;;;;;;;4.20;1.15;;;;;;;10.77;58.37;95607.41;6097817;23;20018;-80
2022/11/21 11:33:59;;;;;;;2.60;0.98;;;;;;;10.78;59.22;95603.75;6097332;23;20018;-81
2022/11/21 11:36:37;;;;;;;3.08;1.38;;;;;;;10.74;59.52;95606.00;5981769;24;20104;-81
2022/11/21 11:39:17;;;;;;;1.80;0.82;;;;;;;10.66;58.16;95601.81;6085728;23;20026;-80
2022/11/21 11:50:10;;;;;;;1.90;0.77;;;;;;;10.52;60.35;95574.19;6106339;23;20053;-81
2022/11/21 12:13:48;;;;;;;1.67;0.88;;;;;;;10.41;57.74;95535.75;6046984;23;20027;-80
2022/11/21 12:16:17;;;;;;;2.33;1.13;;;;;;;10.37;59.19;95537.94;6088408;23;20022;-79
2022/11/21 12:18:52;;;;;;;3.67;0.90;;;;;;;10.36;58.66;95532.94;6097702;23;20037;-79
2022/11/21 12:21:22;;;;;;;2.80;0.90;;;;;;;10.36;60.28;95533.72;6098112;23;20025;-81
2022/11/21 12:23:52;;;;;;;2.38;0.73;;;;;;;10.34;59.13;95525.31;6098584;23;20101;-81
2022/11/21 12:26:33;;;;;;;2.00;0.90;;;;;;;10.33;59.85;95520.31;6098799;23;20028;-81
2022/11/21 12:29:19;;;;;;;12.13;1.48;;;;;;;10.29;59.47;95517.31;6100014;23;20093;-81
2022/11/21 12:32:15;;;;;;;4.32;1.20;;;;;;;10.27;58.32;95512.25;6100990;23;20018;-81
2022/11/21 12:34:59;;;;;;;4.47;1.10;;;;;;;10.25;57.11;95505.66;6101318;23;20424;-80
2022/11/21 12:37:37;;;;;;;4.15;1.10;;;;;;;10.23;57.66;95492.84;6098270;23;20022;-81
2022/11/21 12:40:23;;;;;;;4.88;1.20;;;;;;;10.21;57.72;95484.44;6099659;23;20022;-81
2022/11/21 12:43:02;;;;;;;3.63;1.02;;;;;;;10.17;57.58;95488.47;6100445;23;20029;-81
2022/11/21 12:45:33;;;;;;;5.10;1.30;;;;;;;10.13;56.63;95476.06;6100265;23;20022;-81
2022/11/21 12:54:33;;;;;;;2.35;0.73;;;;;;;10.20;57.51;95456.78;6098612;23;20027;-80
2022/11/21 12:57:08;;;;;;;1.67;0.80;;;;;;;10.19;56.69;95452.56;6097390;23;20015;-80
2022/11/21 12:59:46;;;;;;;4.45;1.08;;;;;;;10.22;57.93;95444.34;6099860;23;20443;-80
2022/11/21 13:02:26;;;;;;;3.88;1.10;;;;;;;10.20;56.01;95441.13;6099233;23;20102;-80
2022/11/21 13:04:57;;;;;;;3.25;0.90;;;;;;;10.22;56.14;95436.50;6098657;23;20015;-81
2022/11/21 13:07:28;;;;;;;3.35;0.85;;;;;;;10.25;60.43;95435.28;6098457;23;20022;-80
2022/11/21 13:09:58;;;;;;;2.67;0.70;;;;;;;10.28;57.78;95432.28;6097985;23;20086;-80
2022/11/21 13:12:34;;;;;;;4.60;0.82;;;;;;;10.28;59.29;95432.28;6098058;23;20018;-81
2022/11/21 13:15:14;;;;;;;3.40;0.90;;;;;;;10.30;58.15;95433.72;6098557;23;20018;-80
2022/11/21 13:17:49;;;;;;;2.50;0.80;;;;;;;10.31;60.39;95431.91;6097788;23;20030;-80
2022/11/21 13:20:23;;;;;;;2.55;0.90;;;;;;;10.29;61.30;95429.47;6098009;23;20014;-81
2022/11/21 13:22:53;;;;;;;4.57;1.33;;;;;;;10.26;57.71;95427.28;6100086;23;20535;-81
2022/11/21 13:25:45;;;;;;;3.78;1.00;;;;;;;10.24;57.23;95423.28;6098627;23;20014;-81
2022/11/21 13:28:36;;;;;;;2.17;0.70;;;;;;;10.22;57.52;95431.31;6099462;23;20019;-80
2022/11/21 13:31:28;;;;;;;2.65;0.90;;;;;;;10.19;59.57;95423.91;6098248;23;20019;-81
2022/11/21 13:33:57;;;;;;;3.67;1.23;;;;;;;10.18;59.09;95424.91;6109724;23;20572;-81
2022/11/21 13:36:40;;;;;;;2.72;1.33;;;;;;;10.14;57.09;95423.72;6112441;23;20046;-81
2022/11/21 13:39:32;;;;;;;;;;;;;;;10.15;58.15;95417.50;6101245;23;20025;-81
2022/11/21 13:44:56;;;;;;;2.75;0.75;;;;;;;10.06;57.23;95400.53;6099310;23;20022;-80
2022/11/21 13:47:43;;;;;;;3.45;0.88;;;;;;;10.02;56.11;95386.31;6099759;23;20025;-80
2022/11/21 13:50:31;;;;;;;4.30;1.10;;;;;;;9.96;57.43;95380.13;6099322;23;20080;-81
2022/11/21 13:53:10;;;;;;;2.00;0.60;;;;;;;9.93;60.32;95377.13;6099415;23;20094;-80
2022/11/21 13:55:47;;;;;;;3.33;1.77;;;;;;;9.89;59.17;95369.72;6098043;23;20030;-80
2022/11/21 13:58:28;;;;;;;3.97;0.70;;;;;;;9.87;59.11;95368.34;6097392;23;20022;-80
2022/11/21 14:01:11;;;;;;;5.45;1.08;;;;;;;9.79;58.80;95360.75;6098635;23;20022;-80
2022/11/21 14:04:22;;;;;;;2.10;0.93;;;;;;;9.75;59.17;95354.34;6098429;23;20101;-80
2022/11/21 14:07:15;;;;;;;4.05;0.90;;;;;;;9.69;59.63;95348.97;6099000;23;20489;-80
2022/11/21 14:09:49;;;;;;;2.45;0.70;;;;;;;9.64;60.02;95348.00;6105735;23;20022;-81
2022/11/21 14:12:23;;;;;;;2.55;0.80;;;;;;;9.61;62.65;95344.00;6100618;23;20024;-81
2022/11/21 14:15:17;;;;;;;1.63;1.02;;;;;;;9.61;61.11;95343.19;6100232;23;20033;-81
2022/11/21 14:17:47;;;;;;;2.65;0.98;;;;;;;9.59;60.65;95340.00;6100039;23;20014;-79
2022/11/21 14:20:18;;;;;;;5.43;1.20;;;;;;;9.56;60.53;95340.44;6100452;23;20103;-80
2022/11/21 14:22:54;;;;;;;2.88;1.25;;;;;;;9.52;60.37;95334.03;6101669;23;20022;-80
2022/11/21 14:25:29;;;;;;;3.60;1.20;;;;;;;9.49;60.68;95340.44;6100623;23;20019;-81
2022/11/21 14:27:58;;;;;;;3.33;1.13;;;;;;;9.48;62.32;95339.63;6100202;23;20025;-80
2022/11/21 14:30:32;;;;;;;5.05;1.45;;;;;;;9.45;61.16;95344.47;6101108;23;20018;-80
2022/11/21 14:33:26;;;;;;;4.07;1.50;;;;;;;9.43;61.71;95338.66;6100357;23;20370;-80
2022/11/21 14:35:57;;;;;;;3.70;1.45;;;;;;;9.42;62.89;95326.63;6099423;23;20023;-80
2022/11/21 14:38:25;;;;;;;4.13;1.15;;;;;;;9.43;63.15;95321.25;6106360;23;20026;-81
2022/11/21 14:41:18;;;;;;;1.67;1.30;;;;;;;9.46;65.30;95320.03;6101332;23;20046;-81
2022/11/21 14:43:45;;;;;;;2.43;1.10;;;;;;;9.45;63.84;95301.00;6097801;23;20029;-79
2022/11/21 14:46:15;;;;;;;2.45;1.20;;;;;;;9.42;62.63;95298.84;6098294;23;20248;-79
2022/11/21 14:48:43;;;;;;;4.72;2.17;;;;;;;9.37;62.79;95290.81;6099191;23;20029;-81
2022/11/21 14:51:16;;;;;;;6.38;1.75;;;;;;;9.33;62.01;95294.84;6100203;23;20555;-81
2022/11/21 14:53:45;;;;;;;3.13;1.25;;;;;;;9.30;62.96;95290.06;6100618;23;20101;-80
2022/11/21 14:56:23;;;;;;;2.30;1.10;;;;;;;9.27;62.02;95290.44;6098291;23;20436;-80
2022/11/21 14:58:52;;;;;;;1.42;0.88;;;;;;;9.24;63.68;95286.47;6097803;23;20014;-80
2022/11/21 15:01:22;;;;;;;4.30;1.70;;;;;;;9.24;63.39;95286.47;6098354;23;20026;-80
2022/11/21 15:04:00;;;;;;;3.28;1.20;;;;;;;9.18;63.53;95281.28;6099274;23;20022;-80
2022/11/21 15:06:28;;;;;;;3.58;1.50;;;;;;;9.11;64.49;95281.31;6098078;23;20033;-80
2022/11/21 15:08:56;;;;;;;4.05;1.52;;;;;;;9.08;63.72;95282.50;6097485;23;20054;-80
2022/11/21 15:11:52;;;;;;;6.47;1.85;;;;;;;8.98;63.05;95270.94;6100655;23;20340;-80
2022/11/21 15:14:35;;;;;;;3.58;1.33;;;;;;;8.90;63.26;95271.16;6102114;23;20081;-81
2022/11/21 15:17:05;;;;;;;;;;;;;;;8.89;63.52;95267.75;6102050;23;20022;-80
2022/11/21 15:19:34;;;;;;;6.70;1.83;;;;;;;8.82;63.00;95262.56;6100693;23;20000;-81
2022/11/21 15:22:04;;;;;;;4.88;2.33;;;;;;;8.77;63.06;95256.41;6103063;23;20049;-80
2022/11/21 15:24:38;;;;;;;6.10;1.70;;;;;;;8.72;62.67;95256.19;6110892;23;20042;-80
2022/11/21 15:27:30;;;;;;;10.60;2.45;;;;;;;8.61;62.10;95250.59;6115346;23;20018;-81
2022/11/21 15:30:03;;;;;;;4.72;1.50;;;;;;;8.52;62.80;95241.41;6114878;23;20089;-81
2022/11/21 15:32:31;;;;;;;2.25;1.15;;;;;;;8.48;62.49;95229.81;6109000;23;20026;-80
2022/11/21 15:34:59;;;;;;;3.97;1.95;;;;;;;8.39;62.33;95231.81;6110921;23;20026;-80
2022/11/21 15:37:26;;;;;;;9.02;2.10;;;;;;;8.30;62.30;95232.22;6110269;23;20026;-80
2022/11/21 15:39:54;;;;;;;3.92;1.42;;;;;;;8.19;62.40;95221.44;6110042;23;20018;-81
2022/11/21 15:42:36;;;;;;;4.20;1.50;;;;;;;8.04;63.06;95218.22;6106160;23;20026;-81
2022/11/21 15:45:21;;;;;;;5.88;1.92;;;;;;;7.92;63.23;95212.84;6099994;23;20041;-80
2022/11/21 15:47:49;;;;;;;4.32;2.20;;;;;;;7.83;63.34;95199.25;6100879;23;20058;-80
2022/11/21 15:50:17;;;;;;;7.35;1.90;;;;;;;7.78;63.07;95203.44;6099479;23;20023;-81
2022/11/21 15:52:46;;;;;;;3.60;1.60;;;;;;;7.71;63.06;95197.44;6099544;23;20026;-80
2022/11/21 15:55:19;;;;;;;4.65;1.80;;;;;;;7.66;63.33;95192.06;6100619;23;20407;-81
2022/11/21 15:57:48;;;;;;;5.97;2.47;;;;;;;7.59;63.17;95189.44;6101841;23;20026;-81
2022/11/21 16:00:17;;;;;;;3.97;1.90;;;;;;;7.54;63.84;95189.22;6102002;23;20050;-81
2022/11/21 16:02:45;;;;;;;10.02;2.38;;;;;;;7.52;64.48;95181.66;6100994;23;20474;-82
2022/11/21 16:05:14;;;;;;;8.13;2.30;;;;;;;7.50;64.17;95175.03;6100211;23;20014;-82
2022/11/21 16:07:42;;;;;;;7.53;2.80;;;;;;;7.45;63.82;95172.25;6099367;23;20074;-82
2022/11/21 16:10:10;;;;;;;4.95;2.42;;;;;;;7.41;63.15;95169.25;6100800;23;20491;-85
2022/11/21 16:12:53;;;;;;;8.07;2.53;;;;;;;7.35;63.05;95160.47;6100344;23;20018;-84
2022/11/21 16:15:23;;;;;;;7.45;2.40;;;;;;;7.25;63.11;95144.47;6100058;23;20023;-87
2022/11/21 16:17:51;;;;;;;6.13;3.33;;;;;;;7.18;63.32;95146.25;6099516;23;20018;-84
2022/11/21 16:20:19;;;;;;;7.35;3.25;;;;;;;7.06;63.64;95133.06;6099768;23;20026;-84
2022/11/21 16:22:46;;;;;;;10.40;3.97;;;;;;;6.95;63.71;95137.03;6099793;23;20101;-82
2022/11/21 16:25:16;;;;;;;7.40;2.97;;;;;;;6.92;64.13;95127.03;6099777;23;20038;-82
2022/11/21 16:27:44;;;;;;;6.15;3.22;;;;;;;6.86;64.32;95127.81;6098533;23;20026;-79
2022/11/21 16:30:14;;;;;;;9.88;3.15;;;;;;;6.80;64.09;95121.63;6105448;23;20018;-84
2022/11/21 16:32:41;;;;;;;7.85;3.90;;;;;;;6.80;64.97;95118.25;6097600;23;20031;-79
2022/11/21 16:35:33;;;;;;;8.85;4.18;;;;;;;6.81;64.75;95115.44;6097675;23;20028;-80
2022/11/21 16:38:01;;;;;;;7.78;3.38;;;;;;;6.81;64.71;95110.25;6096474;23;20023;-81
2022/11/21 16:41:06;;;;;;;9.25;3.58;;;;;;;6.79;64.99;95106.25;6097463;23;20022;-84
2022/11/21 16:43:45;;;;;;;10.10;3.65;;;;;;;6.78;65.38;95109.88;6055927;23;20023;-87
2022/11/21 16:46:15;;;;;;;6.63;3.47;;;;;;;6.77;65.67;95113.44;6096381;23;20029;-88
2022/11/21 16:48:43;;;;;;;12.18;3.10;;;;;;;6.75;65.20;95100.66;6097069;23;20018;-87
2022/11/21 16:51:13;;;;;;;8.13;3.35;;;;;;;6.72;65.71;95095.88;6096654;23;20097;-85
2022/11/21 16:53:41;;;;;;;5.32;3.25;;;;;;;6.69;65.49;95079.91;6096497;23;20026;-87
2022/11/21 16:56:15;;;;;;;7.45;3.13;;;;;;;6.63;65.59;95073.72;6099094;23;20022;-86
2022/11/21 16:58:46;;;;;;;7.05;3.50;;;;;;;6.55;65.73;95068.72;6099459;23;20022;-85
2022/11/21 17:01:16;;;;;;;6.43;3.03;;;;;;;6.52;67.05;95062.13;6100882;23;20429;-87
2022/11/21 17:03:46;;;;;;;5.70;2.78;;;;;;;6.53;67.34;95044.78;6102160;23;20026;-91
2022/11/21 17:06:16;;;;;;;5.63;2.80;;;;;;;6.52;66.94;95054.34;6100488;23;20037;-86
2022/11/21 17:08:44;;;;;;;7.85;3.35;;;;;;;6.53;67.56;95055.94;6100369;23;20030;-89
2022/11/21 17:11:15;;;;;;;6.03;3.30;;;;;;;6.52;67.44;95049.19;6101213;23;20124;-89
2022/11/21 17:13:43;;;;;;;6.28;2.90;;;;;;;6.53;67.06;95048.16;6099799;23;20480;-86
2022/11/21 17:16:12;;;;;;;7.45;3.63;;;;;;;6.52;66.58;95038.81;6100874;23;20101;-88
2022/11/21 17:18:42;;;;;;;4.55;3.45;;;;;;;6.53;68.36;95024.84;6101651;23;20030;-89
2022/11/21 17:21:11;;;;;;;5.25;3.33;;;;;;;6.52;68.24;95023.28;6100843;23;20022;-86
2022/11/21 17:23:40;;;;;;;7.57;3.30;;;;;;;6.53;68.21;95014.50;6101691;23;20498;-89
2022/11/21 17:26:09;;;;;;;3.50;3.08;;;;;;;6.56;69.11;95011.53;6100162;23;20029;-86
2022/11/21 17:28:37;;;;;;;4.95;3.85;;;;;;;6.57;70.18;95004.56;6100154;23;20101;-83
2022/11/21 17:31:13;;;;;;;8.85;4.82;;;;;;;6.56;69.91;95001.16;6100838;23;20129;-86
2022/11/21 17:33:44;;;;;;;6.97;4.30;;;;;;;6.57;71.06;94992.38;6101841;23;20029;-87
2022/11/21 17:36:21;;;;;;;6.35;4.75;;;;;;;6.58;69.50;94988.81;6100850;23;20023;-90
2022/11/21 17:38:51;;;;;;;7.88;5.07;;;;;;;6.59;69.59;94987.03;6101479;23;20033;-85
2022/11/21 17:41:21;;;;;;;8.48;3.58;;;;;;;6.58;67.53;94985.41;6101812;23;20023;-89
2022/11/21 17:43:54;;;;;;;6.40;4.05;;;;;;;6.56;69.39;94987.44;6101455;23;20028;-88
2022/11/21 17:46:24;;;;;;;7.55;3.80;;;;;;;6.57;70.18;94984.63;6100293;23;20014;-86
2022/11/21 17:48:59;;;;;;;7.03;2.80;;;;;;;6.58;68.12;94982.81;6100141;23;20049;-90
2022/11/21 17:51:32;;;;;;;4.90;2.55;;;;;;;6.56;67.93;94970.09;6100827;23;20022;-87
2022/11/21 17:54:03;;;;;;;6.75;3.35;;;;;;;6.57;67.77;94963.09;6102176;23;20077;-89
2022/11/21 17:56:36;;;;;;;3.40;1.88;;;;;;;6.54;66.51;94964.28;6101876;23;20042;-88
2022/11/21 17:59:13;;;;;;;6.95;2.70;;;;;;;6.53;66.65;94970.47;6102028;23;20502;-88
2022/11/21 18:01:50;;;;;;;7.63;3.92;;;;;;;6.52;66.91;94966.28;6101760;23;20341;-90
2022/11/21 18:04:33;;;;;;;4.72;2.65;;;;;;;6.50;65.54;94968.28;6105128;23;20597;-88
2022/11/21 18:07:06;;;;;;;5.55;2.97;;;;;;;6.47;65.96;94968.69;6103323;23;20026;-84
2022/11/21 18:09:35;;;;;;;6.65;3.13;;;;;;;6.47;66.70;94967.84;6101682;23;20050;-85
2022/11/21 18:12:03;;;;;;;5.43;2.88;;;;;;;6.39;65.39;94972.22;6100739;23;20027;-87
2022/11/21 18:14:31;;;;;;;5.47;3.10;;;;;;;6.31;65.48;94971.59;6101633;23;20019;-81
2022/11/21 18:16:59;;;;;;;6.70;3.00;;;;;;;6.26;65.69;94971.41;6100756;23;20023;-85
2022/11/21 18:19:30;;;;;;;6.55;3.22;;;;;;;6.18;65.28;94964.59;6101923;23;20018;-85
2022/11/21 18:22:02;;;;;;;5.18;2.88;;;;;;;6.10;66.23;94968.16;6100826;23;20093;-88
2022/11/21 18:24:30;;;;;;;6.60;2.58;;;;;;;6.07;66.02;94972.91;6101122;23;20401;-84
2022/11/21 18:26:58;;;;;;;5.80;2.65;;;;;;;6.05;65.91;94974.91;6101030;23;20018;-88
2022/11/21 18:29:26;;;;;;;4.60;2.75;;;;;;;6.04;65.67;94981.88;6100598;23;20093;-86
2022/11/21 18:32:03;;;;;;;6.65;2.80;;;;;;;6.06;66.71;94968.75;6103217;23;20033;-82
2022/11/21 18:34:32;;;;;;;4.75;2.65;;;;;;;6.08;66.97;94975.31;6105411;23;20022;-77
2022/11/21 18:37:00;;;;;;;4.88;2.67;;;;;;;6.09;66.18;94965.75;6106132;23;20101;-90
2022/11/21 18:39:31;;;;;;;6.15;2.17;;;;;;;6.06;65.33;94946.25;6105082;23;20069;-91
2022/11/21 18:42:00;;;;;;;5.88;2.47;;;;;;;6.01;65.66;94940.84;6103631;23;20074;-88
2022/11/21 18:44:29;;;;;;;4.57;2.55;;;;;;;5.96;65.62;94938.81;6102737;23;20045;-89
2022/11/21 18:47:02;;;;;;;6.38;2.58;;;;;;;5.95;65.99;94926.09;6101716;23;20022;-90
2022/11/21 18:49:48;;;;;;;3.42;2.03;;;;;;;5.94;65.61;94920.09;6103395;23;20124;-87
2022/11/21 18:52:15;;;;;;;6.43;3.20;;;;;;;5.92;65.29;94903.94;6103145;23;20022;-87
2022/11/21 18:54:44;;;;;;;5.60;1.90;;;;;;;5.91;65.85;94901.56;6102877;23;20029;-89